createdAt,value
2018-12-01T00:00:43.363Z,9.12
2018-12-01T00:03:12.835Z,9.17
2018-12-01T00:05:42.266Z,9.04
2018-12-01T00:08:11.839Z,9.28
2018-12-01T00:10:41.621Z,9.24
2018-12-01T00:13:10.925Z,9.29
2018-12-01T00:15:40.417Z,9.27
2018-12-01T00:18:10.153Z,9.27
2018-12-01T00:20:40.017Z,9.22
2018-12-01T00:23:09.442Z,9.24
2018-12-01T00:25:38.894Z,9.28
2018-12-01T00:28:08.331Z,9.43
2018-12-01T00:30:37.813Z,9.51
2018-12-01T00:33:07.381Z,9.45
2018-12-01T00:35:36.647Z,9.41
2018-12-01T00:38:06.698Z,9.43
2018-12-01T00:40:35.973Z,9.42
2018-12-01T00:43:05.386Z,9.36
2018-12-01T00:45:34.637Z,9.19
2018-12-01T00:48:04.241Z,9.11
2018-12-01T00:50:33.523Z,9.06
2018-12-01T00:53:03.334Z,9.08
2018-12-01T00:55:32.750Z,9.02
2018-12-01T00:58:02.040Z,8.96
2018-12-01T01:00:31.631Z,8.94
2018-12-01T01:03:01.417Z,8.91
2018-12-01T01:05:31.650Z,8.89
2018-12-01T01:08:01.859Z,8.77
2018-12-01T01:10:34.719Z,8.74
2018-12-01T01:13:03.767Z,8.52
2018-12-01T01:15:33.069Z,8.45
2018-12-01T01:18:02.372Z,8.52
2018-12-01T01:20:31.871Z,8.55
2018-12-01T01:23:07.640Z,8.53
2018-12-01T01:25:37.074Z,8.46
2018-12-01T01:28:07.457Z,8.35
2018-12-01T01:30:48.874Z,8.27
2018-12-01T01:33:27.713Z,8.19
2018-12-01T01:35:57.015Z,8.18
2018-12-01T01:38:26.496Z,8.10
2018-12-01T01:41:01.667Z,8.09
2018-12-01T01:43:31.021Z,8.17
2018-12-01T01:46:00.822Z,8.16
2018-12-01T01:48:30.413Z,8.19
2018-12-01T01:50:59.717Z,8.00
2018-12-01T01:53:29.012Z,8.18
2018-12-01T01:55:58.353Z,8.09
2018-12-01T01:58:27.654Z,7.84
2018-12-01T02:00:56.913Z,7.78
2018-12-01T02:03:26.229Z,7.84
2018-12-01T02:05:55.528Z,7.86
2018-12-01T02:08:24.896Z,7.75
2018-12-01T02:10:54.841Z,7.69
2018-12-01T02:13:24.133Z,7.71
2018-12-01T02:15:53.450Z,7.59
2018-12-01T02:18:23.468Z,7.74
2018-12-01T02:20:52.779Z,7.73
2018-12-01T02:23:22.064Z,7.62
2018-12-01T02:25:51.506Z,7.75
2018-12-01T02:28:20.843Z,7.74
2018-12-01T02:30:50.133Z,7.53
2018-12-01T02:33:19.525Z,7.53
2018-12-01T02:35:49.171Z,7.56
2018-12-01T02:38:18.460Z,7.57
2018-12-01T02:40:47.855Z,7.51
2018-12-01T02:43:17.094Z,7.39
2018-12-01T02:46:03.377Z,7.28
2018-12-01T02:48:33.034Z,7.18
2018-12-01T02:51:02.387Z,7.31
2018-12-01T02:53:31.773Z,7.39
2018-12-01T02:56:01.069Z,7.55
2018-12-01T02:58:30.373Z,7.60
2018-12-01T03:00:59.749Z,7.57
2018-12-01T03:03:29.077Z,7.55
2018-12-01T03:05:58.381Z,7.65
2018-12-01T03:08:27.673Z,7.69
2018-12-01T03:10:56.993Z,7.64
2018-12-01T03:13:26.464Z,7.61
2018-12-01T03:15:56.248Z,7.48
2018-12-01T03:18:25.518Z,7.38
2018-12-01T03:20:54.856Z,7.35
2018-12-01T03:23:24.147Z,7.45
2018-12-01T03:25:56.632Z,7.45
2018-12-01T03:28:26.045Z,7.35
2018-12-01T03:30:55.297Z,7.44
2018-12-01T03:33:24.560Z,7.40
2018-12-01T03:35:54.168Z,7.40
2018-12-01T03:38:23.815Z,7.33
2018-12-01T03:40:53.283Z,7.41
2018-12-01T03:43:22.580Z,7.39
2018-12-01T03:45:51.888Z,7.36
2018-12-01T03:48:21.216Z,7.33
2018-12-01T03:50:50.518Z,7.16
2018-12-01T03:53:19.798Z,7.24
2018-12-01T03:55:49.080Z,7.32
2018-12-01T03:58:18.497Z,7.42
2018-12-01T04:00:47.750Z,7.63
2018-12-01T04:03:17.019Z,7.70
2018-12-01T04:05:46.420Z,7.84
2018-12-01T04:08:15.679Z,7.77
2018-12-01T04:10:44.941Z,7.70
2018-12-01T04:13:14.229Z,7.67
2018-12-01T04:15:43.700Z,7.78
2018-12-01T04:18:13.130Z,7.82
2018-12-01T04:20:42.549Z,7.84
2018-12-01T04:23:11.935Z,7.83
2018-12-01T04:25:41.200Z,7.99
2018-12-01T04:28:10.507Z,8.04
2018-12-01T04:30:39.749Z,8.25
2018-12-01T04:33:09.007Z,8.13
2018-12-01T04:35:38.285Z,8.10
2018-12-01T04:38:07.967Z,8.13
2018-12-01T04:40:37.601Z,8.19
2018-12-01T04:43:07.174Z,8.26
2018-12-01T04:45:36.438Z,8.41
2018-12-01T04:48:05.915Z,8.44
2018-12-01T04:50:35.212Z,8.38
2018-12-01T04:53:04.464Z,8.35
2018-12-01T04:55:33.910Z,8.36
2018-12-01T04:58:03.213Z,8.48
2018-12-01T05:00:32.530Z,8.60
2018-12-01T05:03:01.847Z,8.63
2018-12-01T05:05:31.262Z,8.51
2018-12-01T05:08:00.549Z,8.65
2018-12-01T05:10:29.879Z,8.73
2018-12-01T05:12:59.139Z,8.58
2018-12-01T05:15:28.492Z,8.59
2018-12-01T05:17:57.766Z,8.47
2018-12-01T05:20:27.185Z,8.58
2018-12-01T05:22:56.473Z,8.86
2018-12-01T05:25:25.776Z,8.66
2018-12-01T05:27:55.268Z,8.56
2018-12-01T05:30:24.595Z,8.48
2018-12-01T05:32:53.846Z,8.57
2018-12-01T05:35:24.776Z,8.73
2018-12-01T05:37:54.029Z,8.52
2018-12-01T05:40:23.373Z,8.82
2018-12-01T05:42:52.724Z,8.83
2018-12-01T05:45:23.447Z,9.00
2018-12-01T05:47:53.610Z,8.73
2018-12-01T05:50:26.737Z,8.83
2018-12-01T05:52:57.495Z,8.84
2018-12-01T05:55:26.912Z,8.99
2018-12-01T05:57:56.181Z,8.95
2018-12-01T06:00:25.539Z,8.96
2018-12-01T06:02:54.850Z,8.94
2018-12-01T06:05:24.095Z,9.08
2018-12-01T06:07:53.880Z,9.29
2018-12-01T06:10:23.705Z,9.19
2018-12-01T06:12:54.113Z,8.73
2018-12-01T06:15:23.504Z,9.09
2018-12-01T06:17:52.769Z,9.11
2018-12-01T06:20:23.410Z,9.16
2018-12-01T06:22:52.782Z,9.14
2018-12-01T06:25:23.686Z,9.17
2018-12-01T06:27:53.398Z,9.17
2018-12-01T06:30:22.730Z,9.13
2018-12-01T06:32:52.937Z,9.19
2018-12-01T06:35:22.232Z,9.10
2018-12-01T06:37:51.498Z,9.16
2018-12-01T06:40:21.866Z,9.21
2018-12-01T06:42:51.688Z,8.94
2018-12-01T06:45:21.136Z,8.89
2018-12-01T06:47:50.430Z,8.93
2018-12-01T06:50:21.877Z,9.21
2018-12-01T06:52:53.347Z,9.32
2018-12-01T06:55:23.840Z,9.19
2018-12-01T06:57:53.154Z,9.08
2018-12-01T07:00:24.215Z,9.01
2018-12-01T07:02:55.225Z,9.21
2018-12-01T07:05:24.576Z,9.36
2018-12-01T07:07:53.957Z,9.06
2018-12-01T07:10:23.940Z,9.10
2018-12-01T07:13:01.823Z,9.08
2018-12-01T07:15:36.738Z,9.33
2018-12-01T07:18:23.059Z,9.44
2018-12-01T07:20:52.322Z,9.05
2018-12-01T07:23:21.583Z,9.06
2018-12-01T07:25:51.189Z,8.85
2018-12-01T07:28:21.463Z,8.84
2018-12-01T07:30:49.789Z,8.83
2018-12-01T07:33:19.042Z,8.85
2018-12-01T07:35:48.319Z,9.30
2018-12-01T07:38:17.595Z,9.38
2018-12-01T07:40:46.896Z,9.02
2018-12-01T07:43:16.157Z,9.05
2018-12-01T07:45:45.487Z,9.35
2018-12-01T07:48:14.994Z,9.18
2018-12-01T07:50:44.227Z,9.23
2018-12-01T07:53:17.438Z,9.26
2018-12-01T07:55:42.852Z,9.24
2018-12-01T07:58:12.140Z,9.36
2018-12-01T08:00:41.486Z,9.25
2018-12-01T08:03:10.774Z,9.28
2018-12-01T08:05:40.201Z,9.67
2018-12-01T08:08:09.518Z,9.59
2018-12-01T08:10:39.232Z,9.52
2018-12-01T08:13:08.517Z,9.82
2018-12-01T08:15:37.843Z,9.97
2018-12-01T08:18:07.125Z,9.73
2018-12-01T08:20:36.438Z,9.93
2018-12-01T08:23:06.136Z,10.04
2018-12-01T08:25:35.437Z,10.13
2018-12-01T08:28:05.262Z,10.10
2018-12-01T08:30:34.801Z,10.01
2018-12-01T08:33:04.580Z,10.12
2018-12-01T08:35:33.873Z,9.88
2018-12-01T08:38:03.173Z,10.07
2018-12-01T08:40:33.735Z,10.15
2018-12-01T08:43:03.081Z,10.03
2018-12-01T08:45:32.402Z,9.86
2018-12-01T08:48:01.708Z,10.14
2018-12-01T08:50:31.050Z,10.24
2018-12-01T08:53:00.314Z,10.14
2018-12-01T08:55:30.162Z,10.40
2018-12-01T08:57:59.457Z,10.59
2018-12-01T09:00:39.414Z,10.41
2018-12-01T09:03:20.756Z,10.53
2018-12-01T09:05:50.093Z,10.46
2018-12-01T09:08:19.345Z,10.15
2018-12-01T09:10:48.639Z,10.03
2018-12-01T09:13:18.265Z,10.18
2018-12-01T09:15:47.572Z,10.44
2018-12-01T09:18:16.855Z,10.15
2018-12-01T09:20:46.162Z,10.28
2018-12-01T09:23:15.437Z,10.47
2018-12-01T09:25:44.742Z,10.33
2018-12-01T09:28:14.026Z,10.33
2018-12-01T09:30:43.620Z,10.30
2018-12-01T09:33:12.913Z,10.32
2018-12-01T09:35:42.689Z,10.24
2018-12-01T09:38:11.996Z,10.58
2018-12-01T09:40:41.493Z,10.50
2018-12-01T09:43:10.926Z,10.71
2018-12-01T09:45:40.207Z,10.61
2018-12-01T09:48:09.662Z,10.60
2018-12-01T09:50:38.970Z,10.54
2018-12-01T09:53:08.586Z,10.77
2018-12-01T09:55:37.966Z,10.66
2018-12-01T09:58:07.678Z,10.87
2018-12-01T10:00:36.973Z,10.78
2018-12-01T10:03:08.219Z,10.67
2018-12-01T10:05:37.563Z,10.91
2018-12-01T10:08:07.755Z,10.59
2018-12-01T10:10:37.132Z,10.25
2018-12-01T10:13:06.500Z,10.38
2018-12-01T10:15:37.389Z,10.59
2018-12-01T10:18:09.416Z,10.79
2018-12-01T10:20:38.900Z,11.01
2018-12-01T10:23:11.901Z,10.71
2018-12-01T10:25:43.489Z,10.81
2018-12-01T10:28:13.058Z,10.75
2018-12-01T10:30:42.394Z,10.67
2018-12-01T10:33:11.756Z,10.73
2018-12-01T10:35:41.244Z,10.57
2018-12-01T10:38:14.031Z,10.86
2018-12-01T10:40:43.361Z,10.55
2018-12-01T10:43:12.664Z,10.64
2018-12-01T10:45:42.017Z,10.49
2018-12-01T10:48:11.432Z,10.66
2018-12-01T10:50:40.885Z,11.04
2018-12-01T10:53:10.193Z,11.30
2018-12-01T10:55:40.000Z,10.84
2018-12-01T10:58:11.362Z,10.85
2018-12-01T11:00:46.557Z,10.85
2018-12-01T11:03:21.361Z,10.86
2018-12-01T11:05:50.849Z,10.58
2018-12-01T11:08:20.194Z,10.85
2018-12-01T11:10:55.081Z,10.67
2018-12-01T11:13:19.412Z,10.86
2018-12-01T11:15:48.718Z,11.03
2018-12-01T11:18:18.044Z,11.05
2018-12-01T11:20:47.364Z,10.87
2018-12-01T11:23:16.646Z,10.72
2018-12-01T11:25:46.995Z,11.04
2018-12-01T11:28:16.326Z,11.09
2018-12-01T11:30:45.632Z,10.70
2018-12-01T11:33:14.967Z,10.83
2018-12-01T11:35:44.401Z,10.90
2018-12-01T11:38:13.724Z,10.94
2018-12-01T11:40:42.983Z,11.20
2018-12-01T11:43:12.331Z,11.16
2018-12-01T11:45:41.668Z,11.42
2018-12-01T11:48:11.087Z,11.72
2018-12-01T11:50:41.488Z,11.92
2018-12-01T11:53:10.808Z,11.77
2018-12-01T11:55:40.106Z,11.53
2018-12-01T11:58:09.517Z,11.26
2018-12-01T12:00:38.838Z,11.42
2018-12-01T12:03:08.161Z,11.60
2018-12-01T12:05:37.573Z,11.81
2018-12-01T12:08:19.378Z,12.29
2018-12-01T12:10:48.799Z,12.26
2018-12-01T12:13:18.198Z,12.34
2018-12-01T12:15:47.484Z,12.33
2018-12-01T12:18:16.976Z,12.39
2018-12-01T12:20:46.382Z,12.56
2018-12-01T12:23:16.815Z,12.53
2018-12-01T12:25:45.081Z,12.64
2018-12-01T12:28:14.466Z,12.35
2018-12-01T12:30:43.939Z,12.08
2018-12-01T12:33:13.314Z,12.24
2018-12-01T12:35:42.622Z,12.64
2018-12-01T12:38:11.933Z,12.28
2018-12-01T12:40:41.385Z,12.26
2018-12-01T12:43:10.724Z,12.26
2018-12-01T12:45:40.105Z,11.87
2018-12-01T12:48:10.356Z,12.00
2018-12-01T12:50:39.669Z,12.13
2018-12-01T12:53:08.945Z,11.88
2018-12-01T12:55:38.290Z,11.72
2018-12-01T12:58:07.759Z,11.83
2018-12-01T13:00:37.174Z,11.90
2018-12-01T13:03:12.581Z,12.03
2018-12-01T13:05:45.573Z,11.65
2018-12-01T13:08:17.788Z,12.03
2018-12-01T13:10:47.607Z,12.22
2018-12-01T13:13:16.902Z,12.37
2018-12-01T13:15:46.249Z,12.75
2018-12-01T13:18:15.932Z,12.77
2018-12-01T13:20:47.360Z,12.78
2018-12-01T13:23:16.686Z,12.69
2018-12-01T13:25:46.082Z,12.59
2018-12-01T13:28:19.335Z,12.77
2018-12-01T13:30:55.781Z,12.44
2018-12-01T13:33:25.596Z,12.29
2018-12-01T13:35:55.129Z,12.07
2018-12-01T13:38:24.661Z,12.06
2018-12-01T13:40:54.197Z,12.25
2018-12-01T13:43:23.507Z,11.99
2018-12-01T13:45:52.835Z,12.13
2018-12-01T13:48:22.205Z,12.30
2018-12-01T13:50:51.522Z,12.22
2018-12-01T13:53:20.832Z,12.38
2018-12-01T13:55:50.195Z,12.38
2018-12-01T13:58:19.524Z,12.13
2018-12-01T14:00:48.824Z,11.90
2018-12-01T14:03:18.365Z,11.94
2018-12-01T14:05:47.716Z,12.11
2018-12-01T14:08:17.044Z,12.13
2018-12-01T14:10:49.509Z,12.00
2018-12-01T14:13:18.828Z,12.10
2018-12-01T14:15:48.214Z,12.04
2018-12-01T14:18:17.542Z,11.99
2018-12-01T14:20:46.836Z,11.95
2018-12-01T14:23:16.112Z,12.17
2018-12-01T14:25:45.623Z,12.16
2018-12-01T14:28:14.904Z,12.37
2018-12-01T14:30:44.221Z,12.26
2018-12-01T14:33:14.145Z,12.13
2018-12-01T14:35:43.444Z,11.96
2018-12-01T14:38:16.757Z,11.95
2018-12-01T14:40:48.908Z,12.00
2018-12-01T14:43:18.711Z,11.91
2018-12-01T14:45:50.562Z,11.72
2018-12-01T14:48:19.941Z,11.90
2018-12-01T14:50:49.251Z,11.66
2018-12-01T14:53:19.437Z,11.71
2018-12-01T14:55:48.754Z,11.69
2018-12-01T14:58:18.111Z,11.82
2018-12-01T15:00:54.327Z,11.78
2018-12-01T15:03:23.841Z,11.62
2018-12-01T15:05:53.141Z,11.72
2018-12-01T15:08:22.465Z,11.69
2018-12-01T15:10:51.933Z,11.50
2018-12-01T15:13:21.263Z,11.45
2018-12-01T15:15:50.583Z,11.48
2018-12-01T15:18:19.853Z,11.52
2018-12-01T15:20:49.127Z,11.39
2018-12-01T15:23:18.812Z,11.07
2018-12-01T15:25:48.100Z,10.97
2018-12-01T15:28:17.358Z,10.98
2018-12-01T15:30:46.759Z,10.86
2018-12-01T15:33:17.137Z,10.85
2018-12-01T15:35:47.972Z,10.93
2018-12-01T15:38:17.370Z,10.90
2018-12-01T15:40:49.924Z,10.86
2018-12-01T15:43:19.374Z,10.63
2018-12-01T15:45:48.684Z,10.77
2018-12-01T15:48:18.018Z,10.75
2018-12-01T15:50:47.318Z,10.79
2018-12-01T15:53:17.076Z,10.67
2018-12-01T15:55:46.375Z,10.72
2018-12-01T15:58:15.749Z,10.52
2018-12-01T16:00:45.323Z,10.57
2018-12-01T16:03:14.954Z,10.59
2018-12-01T16:05:44.238Z,10.50
2018-12-01T16:08:13.547Z,10.62
2018-12-01T16:10:43.135Z,10.48
2018-12-01T16:13:20.202Z,10.28
2018-12-01T16:15:57.175Z,10.26
2018-12-01T16:18:26.443Z,10.20
2018-12-01T16:20:55.791Z,10.38
2018-12-01T16:23:25.503Z,10.18
2018-12-01T16:25:55.138Z,10.01
2018-12-01T16:28:24.410Z,9.92
2018-12-01T16:30:53.768Z,10.04
2018-12-01T16:33:23.337Z,9.96
2018-12-01T16:35:52.957Z,9.94
2018-12-01T16:38:24.926Z,9.78
2018-12-01T16:41:00.762Z,9.89
2018-12-01T16:43:33.309Z,9.91
2018-12-01T16:46:02.747Z,9.84
2018-12-01T16:48:33.153Z,9.87
2018-12-01T16:51:01.437Z,9.86
2018-12-01T16:53:30.852Z,9.82
2018-12-01T16:56:00.233Z,9.92
2018-12-01T16:58:29.551Z,9.94
2018-12-01T17:00:58.975Z,9.83
2018-12-01T17:03:28.264Z,9.67
2018-12-01T17:06:00.124Z,9.65
2018-12-01T17:08:29.409Z,9.70
2018-12-01T17:10:58.728Z,9.61
2018-12-01T17:13:28.034Z,9.61
2018-12-01T17:15:57.370Z,9.51
2018-12-01T17:18:26.654Z,9.50
2018-12-01T17:20:56.003Z,9.52
2018-12-01T17:23:25.415Z,9.58
2018-12-01T17:25:54.735Z,9.68
2018-12-01T17:28:24.590Z,9.65
2018-12-01T17:30:54.042Z,9.71
2018-12-01T17:33:23.307Z,9.59
2018-12-01T17:35:52.655Z,9.75
2018-12-01T17:38:22.878Z,9.72
2018-12-01T17:41:28.174Z,9.58
2018-12-01T17:44:08.339Z,9.50
2018-12-01T17:46:38.264Z,9.60
2018-12-01T17:49:08.048Z,9.41
2018-12-01T17:51:37.354Z,9.45
2018-12-01T17:54:12.962Z,9.45
2018-12-01T17:56:42.217Z,9.39
2018-12-01T17:59:11.478Z,9.23
2018-12-01T18:01:41.426Z,9.17
2018-12-01T18:04:10.702Z,9.14
2018-12-01T18:06:39.991Z,9.28
2018-12-01T18:09:10.413Z,9.36
2018-12-01T18:11:39.928Z,9.27
2018-12-01T18:14:11.082Z,9.36
2018-12-01T18:16:40.830Z,9.34
2018-12-01T18:19:11.119Z,9.43
2018-12-01T18:21:39.781Z,9.43
2018-12-01T18:24:09.644Z,9.42
2018-12-01T18:26:38.946Z,9.29
2018-12-01T18:29:08.279Z,9.20
2018-12-01T18:31:37.647Z,9.31
2018-12-01T18:34:11.077Z,9.13
2018-12-01T18:36:40.571Z,9.30
2018-12-01T18:39:17.621Z,9.11
2018-12-01T18:41:47.462Z,9.16
2018-12-01T18:44:16.768Z,9.10
2018-12-01T18:46:46.104Z,9.17
2018-12-01T18:49:15.441Z,9.12
2018-12-01T18:51:44.741Z,9.02
2018-12-01T18:54:14.351Z,9.21
2018-12-01T18:56:43.685Z,9.24
2018-12-01T18:59:12.973Z,9.17
2018-12-01T19:01:42.348Z,9.09
2018-12-01T19:04:12.248Z,9.21
2018-12-01T19:06:41.538Z,9.18
2018-12-01T19:09:10.949Z,9.22
2018-12-01T19:11:40.266Z,9.33
2018-12-01T19:14:09.522Z,9.27
2018-12-01T19:16:38.883Z,9.20
2018-12-01T19:19:08.578Z,9.21
2018-12-01T19:21:37.959Z,9.36
2018-12-01T19:24:07.271Z,9.30
2018-12-01T19:26:37.047Z,9.32
2018-12-01T19:29:06.876Z,9.35
2018-12-01T19:31:36.216Z,9.21
2018-12-01T19:34:06.100Z,9.30
2018-12-01T19:36:35.500Z,9.55
2018-12-01T19:39:12.218Z,9.49
2018-12-01T19:41:41.506Z,9.33
2018-12-01T19:44:10.895Z,9.47
2018-12-01T19:46:40.972Z,9.34
2018-12-01T19:49:10.098Z,9.26
2018-12-01T19:51:39.399Z,9.29
2018-12-01T19:54:08.740Z,9.34
2018-12-01T19:56:38.024Z,9.51
2018-12-01T19:59:07.313Z,9.62
2018-12-01T20:01:36.631Z,9.73
2018-12-01T20:04:06.267Z,9.87
2018-12-01T20:06:35.542Z,9.99
2018-12-01T20:09:05.838Z,9.88
2018-12-01T20:11:35.250Z,9.84
2018-12-01T20:14:08.426Z,9.79
2018-12-01T20:16:41.295Z,9.61
2018-12-01T20:19:10.935Z,9.61
2018-12-01T20:21:40.201Z,9.71
2018-12-01T20:24:09.870Z,9.79
2018-12-01T20:26:41.903Z,9.86
2018-12-01T20:29:11.233Z,9.86
2018-12-01T20:31:40.505Z,9.76
2018-12-01T20:34:10.061Z,9.79
2018-12-01T20:36:47.875Z,9.74
2018-12-01T20:39:23.368Z,9.76
2018-12-01T20:41:52.673Z,9.90
2018-12-01T20:44:22.337Z,9.82
2018-12-01T20:46:51.921Z,9.68
2018-12-01T20:49:21.356Z,9.79
2018-12-01T20:51:50.730Z,9.78
2018-12-01T20:54:31.613Z,9.72
2018-12-01T20:57:33.868Z,9.66
2018-12-01T21:00:03.938Z,9.57
2018-12-01T21:02:33.363Z,9.75
2018-12-01T21:05:02.728Z,9.87
2018-12-01T21:07:32.347Z,9.89
2018-12-01T21:10:01.754Z,9.81
2018-12-01T21:12:31.145Z,9.78
2018-12-01T21:15:00.661Z,9.73
2018-12-01T21:17:29.981Z,9.79
2018-12-01T21:20:00.193Z,9.79
2018-12-01T21:22:29.670Z,9.85
2018-12-01T21:24:59.053Z,9.68
2018-12-01T21:27:28.525Z,9.73
2018-12-01T21:29:58.083Z,9.78
2018-12-01T21:32:27.571Z,9.69
2018-12-01T21:34:56.976Z,9.68
2018-12-01T21:37:26.440Z,9.66
2018-12-01T21:39:55.905Z,9.71
2018-12-01T21:42:25.565Z,9.57
2018-12-01T21:44:55.203Z,9.67
2018-12-01T21:47:24.596Z,9.67
2018-12-01T21:49:53.999Z,9.76
2018-12-01T21:52:23.825Z,9.57
2018-12-01T21:54:53.236Z,9.25
2018-12-01T21:57:22.653Z,9.45
2018-12-01T21:59:52.072Z,9.45
2018-12-01T22:02:21.498Z,9.42
2018-12-01T22:04:50.947Z,9.48
2018-12-01T22:07:20.305Z,9.39
2018-12-01T22:09:49.661Z,9.38
2018-12-01T22:12:19.124Z,9.39
2018-12-01T22:14:48.549Z,9.43
2018-12-01T22:17:18.161Z,9.46
2018-12-01T22:19:47.496Z,9.64
2018-12-01T22:22:17.019Z,9.65
2018-12-01T22:24:46.326Z,9.64
2018-12-01T22:27:15.693Z,9.61
2018-12-01T22:29:45.088Z,9.67
2018-12-01T22:32:14.439Z,9.59
2018-12-01T22:34:43.751Z,9.52
2018-12-01T22:37:13.340Z,9.53
2018-12-01T22:39:42.919Z,9.63
2018-12-01T22:42:12.290Z,9.73
2018-12-01T22:44:41.599Z,9.60
2018-12-01T22:47:10.855Z,9.50
2018-12-01T22:49:40.199Z,9.49
2018-12-01T22:52:09.616Z,9.61
2018-12-01T22:54:39.078Z,9.63
2018-12-01T22:57:08.431Z,9.81
2018-12-01T22:59:38.243Z,9.92
2018-12-01T23:02:07.620Z,9.93
2018-12-01T23:04:38.856Z,10.02
2018-12-01T23:07:08.157Z,9.68
2018-12-01T23:09:37.422Z,9.78
2018-12-01T23:12:06.924Z,9.75
2018-12-01T23:14:36.213Z,9.59
2018-12-01T23:17:05.890Z,9.57
2018-12-01T23:19:35.543Z,9.84
2018-12-01T23:22:04.974Z,9.69
2018-12-01T23:24:34.407Z,9.58
2018-12-01T23:27:03.768Z,9.41
2018-12-01T23:29:33.152Z,9.34
2018-12-01T23:32:02.440Z,9.29
2018-12-01T23:34:31.830Z,9.52
2018-12-01T23:37:01.122Z,9.55
2018-12-01T23:39:30.604Z,9.50
2018-12-01T23:41:59.989Z,9.37
2018-12-01T23:44:30.402Z,9.23
2018-12-01T23:46:59.660Z,9.29
2018-12-01T23:49:28.970Z,9.22
2018-12-01T23:51:58.260Z,9.11
2018-12-01T23:54:27.514Z,9.07
2018-12-01T23:56:56.796Z,9.08
2018-12-01T23:59:26.069Z,9.10
